Time;durP1;ratioP1;P1;durP2;ratioP2;P2;SDS_P1;SDS_P2;PMS_P1;PMS_P2;Temp;Humidity;BMP_temperature;BMP_pressure;BME280_temperature;BME280_humidity;BME280_pressure;Samples;Min_cycle;Max_cycle;Signal;HPM_P1;HPM_P2
2022/05/05 00:01:58;;;;;;;14.43;7.20;;;;;;;8.69;68.20;100670.31;5123833;27;20501;-62
2022/05/05 00:04:24;;;;;;;10.17;7.47;;;;;;;8.67;67.96;100676.59;5124509;28;20454;-61
2022/05/05 00:06:51;;;;;;;14.17;7.43;;;;;;;8.67;68.59;100675.75;5123484;27;20894;-61
2022/05/05 00:09:18;;;;;;;14.97;7.30;;;;;;;8.62;68.33;100678.75;5124671;28;20454;-61
2022/05/05 00:14:32;;;;;;;19.37;8.03;;;;;;;8.56;69.05;100687.25;5124155;28;20444;-61
2022/05/05 00:17:00;;;;;;;12.70;7.30;;;;;;;8.55;69.12;100682.88;5123086;27;20506;-60
2022/05/05 00:19:28;;;;;;;10.57;6.90;;;;;;;8.51;69.17;100678.75;5123863;28;20426;-61
2022/05/05 00:21:55;;;;;;;14.17;8.50;;;;;;;8.46;69.50;100678.25;5123446;27;20473;-60
2022/05/05 00:24:22;;;;;;;11.77;7.70;;;;;;;8.44;69.51;100680.19;5124261;28;20458;-61
2022/05/05 00:26:50;;;;;;;11.93;7.80;;;;;;;8.43;69.29;100678.47;5131337;27;21028;-61
2022/05/05 00:29:20;;;;;;;15.43;8.50;;;;;;;8.27;69.66;100679.59;5124152;27;20426;-61
2022/05/05 00:31:48;;;;;;;16.03;8.20;;;;;;;8.20;70.14;100673.03;5122694;27;20481;-61
2022/05/05 00:34:14;;;;;;;10.90;7.83;;;;;;;8.28;69.91;100665.31;5123667;28;20442;-61
2022/05/05 00:36:41;;;;;;;10.63;7.63;;;;;;;8.39;69.47;100663.66;5123166;27;20474;-61
2022/05/05 00:39:08;;;;;;;12.80;7.50;;;;;;;8.21;70.37;100664.09;5123987;28;20431;-61
2022/05/05 00:41:36;;;;;;;14.27;8.37;;;;;;;8.07;70.96;100664.25;5122493;27;20496;-61
2022/05/05 00:44:05;;;;;;;15.60;8.70;;;;;;;7.95;71.09;100679.34;5122794;28;20819;-61
2022/05/05 00:46:32;;;;;;;13.23;7.80;;;;;;;7.91;71.28;100673.38;5122518;27;20501;-61
2022/05/05 00:48:59;;;;;;;11.93;7.40;;;;;;;7.84;71.30;100673.94;5123834;28;20437;-62
2022/05/05 00:51:26;;;;;;;10.70;7.37;;;;;;;7.81;71.73;100679.47;5122254;27;20482;-60
2022/05/05 00:53:54;;;;;;;11.70;7.90;;;;;;;7.83;71.97;100680.22;5129107;27;20873;-61
2022/05/05 00:56:21;;;;;;;18.37;8.23;;;;;;;7.81;72.41;100675.03;5129876;27;20478;-61
2022/05/05 00:58:49;;;;;;;14.63;7.83;;;;;;;7.79;72.29;100676.94;5123944;28;20426;-61
2022/05/05 01:01:19;;;;;;;19.27;8.40;;;;;;;7.85;72.59;100678.31;5122355;27;20470;-61
2022/05/05 01:03:46;;;;;;;15.00;9.83;;;;;;;7.88;72.51;100678.06;5122234;28;20471;-60
2022/05/05 01:06:13;;;;;;;12.27;8.30;;;;;;;8.00;72.41;100671.00;5122625;27;20482;-61
2022/05/05 01:08:40;;;;;;;14.17;9.10;;;;;;;8.13;71.88;100681.59;5123261;28;20502;-61
2022/05/05 01:11:07;;;;;;;16.20;9.10;;;;;;;8.19;71.44;100679.31;5122480;28;20488;-61
2022/05/05 01:13:35;;;;;;;18.47;8.90;;;;;;;8.24;71.49;100674.47;5121526;28;20505;-61
2022/05/05 01:16:02;;;;;;;12.17;8.80;;;;;;;8.32;71.73;100678.41;5122491;27;20526;-61
2022/05/05 01:18:30;;;;;;;12.77;8.07;;;;;;;8.38;71.24;100677.94;5122882;28;20469;-61
2022/05/05 01:20:57;;;;;;;11.00;7.67;;;;;;;8.45;71.17;100688.06;5122851;27;20575;-62
2022/05/05 01:23:25;;;;;;;17.67;8.83;;;;;;;8.51;70.97;100685.91;5122015;28;20480;-62
2022/05/05 01:28:41;;;;;;;11.17;8.00;;;;;;;8.52;71.14;100698.25;5122306;28;20505;-61
2022/05/05 01:31:08;;;;;;;9.50;7.90;;;;;;;8.55;70.84;100693.53;5121339;28;21012;-61
2022/05/05 01:33:35;;;;;;;14.10;9.27;;;;;;;8.55;71.22;100696.19;5122241;27;20461;-61
2022/05/05 01:36:03;;;;;;;11.93;8.03;;;;;;;8.45;71.34;100690.72;5121541;27;20469;-61
2022/05/05 01:38:37;;;;;;;11.83;8.90;;;;;;;8.52;71.12;100704.41;5122251;28;20435;-61
2022/05/05 01:41:04;;;;;;;11.30;8.97;;;;;;;8.59;70.98;100696.81;5119830;27;20478;-62
2022/05/05 01:43:31;;;;;;;11.23;8.10;;;;;;;8.63;70.87;100700.94;5106724;28;20478;-60
2022/05/05 01:45:58;;;;;;;14.00;8.63;;;;;;;8.65;70.92;100699.00;5120974;27;20480;-60
2022/05/05 01:48:25;;;;;;;9.97;7.80;;;;;;;8.75;70.55;100699.13;5121929;28;20427;-60
2022/05/05 01:50:51;;;;;;;12.80;7.73;;;;;;;8.79;70.46;100690.78;5120919;27;20647;-60
2022/05/05 01:53:18;;;;;;;12.63;8.13;;;;;;;8.77;70.25;100691.91;5122038;28;20449;-61
2022/05/05 01:55:46;;;;;;;11.57;7.87;;;;;;;8.78;70.35;100698.91;5120579;28;20544;-60
2022/05/05 01:58:13;;;;;;;12.63;8.53;;;;;;;8.76;70.17;100711.50;5121992;28;20467;-60
2022/05/05 02:00:40;;;;;;;17.83;9.60;;;;;;;8.78;70.43;100701.56;5121085;28;20474;-60
2022/05/05 02:03:12;;;;;;;14.60;8.70;;;;;;;8.84;70.41;100699.28;5122378;28;20478;-60
2022/05/05 02:05:40;;;;;;;15.70;9.00;;;;;;;8.80;70.24;100695.19;5121138;27;20474;-60
2022/05/05 02:08:07;;;;;;;12.07;9.40;;;;;;;8.81;70.25;100699.53;5122520;28;20488;-60
2022/05/05 02:10:34;;;;;;;14.33;8.77;;;;;;;8.78;70.32;100698.91;5120757;27;20513;-60
2022/05/05 02:13:02;;;;;;;13.63;8.97;;;;;;;8.81;70.17;100704.84;5122237;28;20472;-60
2022/05/05 02:15:29;;;;;;;9.30;7.90;;;;;;;8.88;70.11;100707.91;5120492;28;20495;-60
2022/05/05 02:17:56;;;;;;;11.10;8.50;;;;;;;8.90;70.26;100702.44;5122243;28;20484;-61
2022/05/05 02:20:23;;;;;;;13.07;9.60;;;;;;;8.73;69.85;100707.28;5120627;27;20601;-60
2022/05/05 02:22:49;;;;;;;14.23;8.83;;;;;;;8.80;69.93;100712.97;5118100;28;20470;-60
2022/05/05 02:25:16;;;;;;;10.93;7.83;;;;;;;8.88;69.86;100715.06;5119917;27;20469;-60
2022/05/05 02:27:48;;;;;;;10.90;7.70;;;;;;;8.84;69.58;100709.13;5121547;28;20430;-61
2022/05/05 02:30:16;;;;;;;17.43;8.23;;;;;;;8.92;69.83;100714.69;5120116;28;20544;-61
2022/05/05 02:32:43;;;;;;;14.83;8.93;;;;;;;8.91;70.40;100706.81;5121630;28;20438;-61
2022/05/05 02:35:10;;;;;;;11.27;8.03;;;;;;;8.92;70.18;100714.69;5120803;27;20518;-62
2022/05/05 02:40:21;;;;;;;10.80;8.90;;;;;;;8.92;69.95;100706.69;5119612;27;20452;-62
2022/05/05 02:42:48;;;;;;;11.50;9.73;;;;;;;8.95;69.86;100705.63;5120967;28;20527;-61
2022/05/05 02:45:16;;;;;;;12.00;8.80;;;;;;;8.92;70.33;100709.34;5120055;27;20457;-61
2022/05/05 02:47:45;;;;;;;14.77;9.33;;;;;;;8.81;70.68;100710.19;5121579;28;20426;-61
2022/05/05 02:50:12;;;;;;;10.50;8.10;;;;;;;8.78;71.43;100714.91;5119937;28;20465;-61
2022/05/05 02:52:38;;;;;;;21.83;10.00;;;;;;;8.83;70.90;100710.91;5123984;28;20438;-61
2022/05/05 02:55:06;;;;;;;12.07;9.60;;;;;;;8.92;70.32;100709.34;5124317;28;21042;-61
2022/05/05 02:57:32;;;;;;;11.07;7.80;;;;;;;8.84;70.21;100709.13;5125420;28;20446;-61
2022/05/05 02:59:59;;;;;;;11.37;9.03;;;;;;;8.90;70.48;100708.63;5125893;28;20453;-61
2022/05/05 03:02:27;;;;;;;15.50;9.27;;;;;;;8.90;70.61;100700.63;5124913;27;20489;-61
2022/05/05 03:04:54;;;;;;;14.97;8.27;;;;;;;8.83;70.41;100702.91;5125209;28;20454;-62
2022/05/05 03:07:22;;;;;;;10.63;8.97;;;;;;;8.77;70.81;100703.41;5123911;28;20526;-61
2022/05/05 03:09:49;;;;;;;13.00;8.37;;;;;;;8.76;71.08;100703.50;5124889;28;20907;-61
2022/05/05 03:12:15;;;;;;;13.13;9.00;;;;;;;8.86;70.53;100700.00;5123866;28;20993;-61
2022/05/05 03:14:43;;;;;;;10.63;7.73;;;;;;;8.89;70.50;100701.63;5124540;27;20461;-61
2022/05/05 03:17:09;;;;;;;11.80;8.57;;;;;;;8.86;70.76;100704.50;5123506;27;20478;-61
2022/05/05 03:19:38;;;;;;;11.00;9.90;;;;;;;8.87;71.02;100703.56;5124431;28;20442;-61
2022/05/05 03:22:05;;;;;;;12.50;9.27;;;;;;;8.91;71.12;100702.34;5124517;28;20469;-60
2022/05/05 03:24:32;;;;;;;11.90;8.03;;;;;;;8.91;70.71;100701.50;5124918;28;20450;-61
2022/05/05 03:27:00;;;;;;;16.43;9.03;;;;;;;8.94;70.79;100694.09;5123249;28;20531;-61
2022/05/05 03:29:27;;;;;;;9.90;8.87;;;;;;;8.80;70.93;100708.50;5124210;28;20480;-61
2022/05/05 03:31:54;;;;;;;12.73;9.57;;;;;;;8.96;70.41;100697.50;5123477;28;20482;-61
2022/05/05 03:34:21;;;;;;;14.23;8.97;;;;;;;9.01;70.11;100694.47;5125158;28;20859;-61
2022/05/05 03:36:50;;;;;;;13.77;8.70;;;;;;;9.14;69.99;100687.19;5124445;28;20843;-62
2022/05/05 03:39:16;;;;;;;13.97;8.87;;;;;;;9.03;71.01;100692.53;5107312;28;20447;-62
2022/05/05 03:41:43;;;;;;;12.53;9.63;;;;;;;9.08;71.08;100698.38;5117988;27;20557;-61
2022/05/05 03:44:10;;;;;;;14.20;8.57;;;;;;;9.03;71.24;100697.88;5124149;28;20494;-61
2022/05/05 03:46:37;;;;;;;14.67;9.10;;;;;;;8.97;71.02;100701.84;5123944;27;20477;-61
2022/05/05 03:49:04;;;;;;;14.80;9.17;;;;;;;8.76;71.76;100711.50;5124553;28;20467;-60
2022/05/05 03:51:30;;;;;;;11.50;9.60;;;;;;;8.69;72.03;100711.13;5123944;27;20503;-61
2022/05/05 03:53:58;;;;;;;14.97;10.43;;;;;;;8.91;71.62;100707.66;5124545;28;20476;-62
2022/05/05 03:56:25;;;;;;;14.30;9.60;;;;;;;9.03;71.29;100712.06;5123416;28;20478;-61
2022/05/05 03:58:52;;;;;;;10.80;9.57;;;;;;;9.05;70.80;100706.59;5124226;28;20507;-60
2022/05/05 04:01:18;;;;;;;16.80;10.33;;;;;;;9.10;70.35;100720.44;5123453;27;20477;-60
2022/05/05 04:03:45;;;;;;;14.03;9.80;;;;;;;9.18;70.17;100720.69;5123853;28;20848;-60
2022/05/05 04:06:16;;;;;;;16.37;9.40;;;;;;;9.06;70.38;100721.63;5123761;28;20666;-61
2022/05/05 04:08:42;;;;;;;13.43;9.33;;;;;;;9.10;70.38;100717.75;5124175;28;20466;-60
2022/05/05 04:11:10;;;;;;;10.60;8.60;;;;;;;9.39;69.88;100715.47;5122432;28;20470;-59
2022/05/05 04:13:39;;;;;;;16.80;8.80;;;;;;;9.31;70.22;100720.56;5123644;28;20442;-61
2022/05/05 04:16:06;;;;;;;12.93;8.80;;;;;;;9.17;71.19;100726.97;5123563;28;20577;-60
2022/05/05 04:18:33;;;;;;;14.47;8.00;;;;;;;9.24;70.87;100735.34;5122850;28;20468;-61
2022/05/05 04:21:00;;;;;;;12.60;9.50;;;;;;;9.24;70.72;100738.88;5123165;28;20469;-60
2022/05/05 04:23:26;;;;;;;15.20;9.40;;;;;;;9.30;71.14;100734.84;5124757;27;20482;-60
2022/05/05 04:25:53;;;;;;;13.93;9.47;;;;;;;9.34;71.00;100733.66;5118851;27;20501;-59
2022/05/05 04:28:22;;;;;;;11.63;9.90;;;;;;;9.37;70.56;100736.09;5123452;27;20450;-59
2022/05/05 04:30:49;;;;;;;17.60;9.80;;;;;;;9.45;70.41;100739.97;5123408;27;20474;-60
2022/05/05 04:33:16;;;;;;;12.50;9.40;;;;;;;9.48;70.59;100742.38;5123496;27;20454;-60
2022/05/05 04:35:42;;;;;;;12.63;8.90;;;;;;;9.54;70.57;100744.59;5107583;27;20478;-60
2022/05/05 04:38:09;;;;;;;12.93;9.37;;;;;;;9.66;70.36;100743.59;5111536;27;20457;-60
2022/05/05 04:40:36;;;;;;;16.17;9.03;;;;;;;9.75;69.83;100758.03;5104654;27;20858;-61
2022/05/05 04:43:03;;;;;;;11.30;8.10;;;;;;;9.66;70.19;100759.63;5103487;28;20466;-61
2022/05/05 04:45:31;;;;;;;12.53;8.97;;;;;;;9.90;69.17;100758.63;5122792;27;20542;-61
2022/05/05 04:47:58;;;;;;;12.30;9.10;;;;;;;9.94;69.00;100752.06;5123160;28;20430;-61
2022/05/05 04:50:25;;;;;;;11.63;9.53;;;;;;;9.91;69.38;100744.28;5117723;27;20454;-61
2022/05/05 04:52:52;;;;;;;15.40;9.13;;;;;;;9.65;69.51;100747.22;5118188;27;20466;-62
2022/05/05 04:55:18;;;;;;;15.73;9.03;;;;;;;9.52;69.68;100763.38;5117344;28;20450;-62
2022/05/05 04:57:45;;;;;;;12.30;8.90;;;;;;;9.80;69.41;100754.00;5127344;27;20445;-61
2022/05/05 05:00:13;;;;;;;13.23;8.97;;;;;;;9.92;69.05;100756.69;5136851;27;20857;-62
2022/05/05 05:02:41;;;;;;;13.13;9.53;;;;;;;9.98;68.60;100764.19;5141232;27;20441;-61
2022/05/05 05:05:09;;;;;;;12.30;9.57;;;;;;;10.16;67.68;100765.38;5120905;27;20450;-62
2022/05/05 05:07:35;;;;;;;12.00;9.00;;;;;;;10.42;66.86;100773.09;5118372;28;21059;-62
2022/05/05 05:10:02;;;;;;;9.40;8.10;;;;;;;10.55;66.45;100778.28;5121391;28;20473;-62
2022/05/05 05:12:29;;;;;;;14.97;9.50;;;;;;;10.64;66.07;100776.66;5121139;27;20454;-61
2022/05/05 05:14:56;;;;;;;10.50;8.90;;;;;;;10.61;65.29;100776.94;5119725;28;20450;-61
2022/05/05 05:17:22;;;;;;;13.80;8.83;;;;;;;10.34;64.93;100781.75;5120201;28;20474;-62
2022/05/05 05:19:51;;;;;;;11.80;8.20;;;;;;;10.39;64.97;100791.22;5121623;28;20445;-63
2022/05/05 05:22:17;;;;;;;10.37;9.33;;;;;;;10.78;64.37;100791.56;5120260;28;20470;-64
2022/05/05 05:24:44;;;;;;;10.33;8.83;;;;;;;10.68;64.51;100792.34;5119586;28;20488;-62
2022/05/05 05:27:11;;;;;;;19.60;9.30;;;;;;;10.77;63.89;100796.06;5120116;28;20531;-62
2022/05/05 05:29:38;;;;;;;14.47;9.17;;;;;;;10.82;64.37;100790.34;5121011;28;20450;-62
2022/05/05 05:32:05;;;;;;;14.40;8.60;;;;;;;10.59;64.38;100797.59;5115634;27;21079;-62
2022/05/05 05:34:32;;;;;;;13.57;8.50;;;;;;;10.72;64.08;100799.09;5116774;28;20972;-62
2022/05/05 05:37:00;;;;;;;13.73;8.13;;;;;;;10.73;64.47;100803.50;5119686;27;20523;-62
2022/05/05 05:39:27;;;;;;;15.60;9.67;;;;;;;10.93;63.14;100799.13;5121346;28;20571;-62
2022/05/05 05:41:54;;;;;;;11.93;8.90;;;;;;;11.13;62.93;100801.97;5120391;27;20466;-63
2022/05/05 05:44:20;;;;;;;11.73;9.50;;;;;;;11.14;62.93;100806.31;5120122;28;20982;-61
2022/05/05 05:46:47;;;;;;;9.80;7.70;;;;;;;11.44;61.29;100810.88;5120172;28;20474;-62
2022/05/05 05:49:14;;;;;;;18.90;8.37;;;;;;;11.45;61.05;100811.72;5120451;28;20443;-62
2022/05/05 05:51:41;;;;;;;17.20;7.80;;;;;;;11.23;61.09;100815.38;5120090;27;20507;-62
2022/05/05 05:54:09;;;;;;;12.83;9.07;;;;;;;11.45;60.96;100814.41;5121927;28;20570;-61
2022/05/05 05:56:36;;;;;;;15.30;9.07;;;;;;;11.83;60.18;100820.94;5120311;27;21045;-61
2022/05/05 05:59:03;;;;;;;20.90;8.47;;;;;;;11.91;60.13;100810.44;5120971;28;20438;-61
2022/05/05 06:04:14;;;;;;;12.93;9.00;;;;;;;12.06;59.12;100816.25;5121423;28;20509;-61
2022/05/05 06:06:41;;;;;;;12.60;8.97;;;;;;;12.28;58.06;100811.66;5119997;27;20513;-61
2022/05/05 06:09:10;;;;;;;11.47;7.93;;;;;;;12.38;58.91;100823.25;5120131;28;20462;-61
2022/05/05 06:11:37;;;;;;;8.90;8.13;;;;;;;12.63;57.43;100827.22;5120092;27;20470;-61
2022/05/05 06:14:05;;;;;;;12.40;8.40;;;;;;;12.64;56.26;100828.94;5119825;28;20801;-61
2022/05/05 06:16:31;;;;;;;10.37;7.60;;;;;;;13.02;55.68;100831.75;5120004;27;20549;-61
2022/05/05 06:18:58;;;;;;;14.10;8.33;;;;;;;13.36;54.18;100824.13;5120829;28;20461;-61
2022/05/05 06:21:25;;;;;;;10.10;7.90;;;;;;;13.55;53.85;100832.13;5119507;27;20466;-61
2022/05/05 06:23:52;;;;;;;11.97;8.23;;;;;;;13.74;53.76;100836.59;5120868;28;20489;-61
2022/05/05 06:26:21;;;;;;;8.60;7.47;;;;;;;14.17;52.53;100834.28;5119673;27;20498;-61
2022/05/05 06:28:48;;;;;;;9.70;7.27;;;;;;;14.34;51.20;100832.66;5118359;28;20457;-61
2022/05/05 06:31:16;;;;;;;11.37;7.03;;;;;;;14.74;50.78;100835.91;5119621;27;20482;-61
2022/05/05 06:33:43;;;;;;;13.80;8.13;;;;;;;15.25;49.27;100837.88;5120610;28;20456;-64
2022/05/05 06:36:09;;;;;;;10.80;7.53;;;;;;;17.72;44.23;100843.16;5118277;27;21115;-62
2022/05/05 06:38:36;;;;;;;9.63;6.80;;;;;;;18.81;40.59;100842.31;5120233;28;20460;-62
2022/05/05 06:41:03;;;;;;;8.90;6.20;;;;;;;19.81;38.46;100845.91;5120404;27;20594;-62
2022/05/05 06:43:31;;;;;;;10.60;6.77;;;;;;;18.92;38.99;100845.66;5119668;28;20482;-63
2022/05/05 06:45:58;;;;;;;9.77;6.97;;;;;;;18.02;41.35;100849.69;5119793;27;20474;-63
2022/05/05 06:48:25;;;;;;;7.53;6.70;;;;;;;18.94;39.59;100840.91;5119659;28;20442;-63
2022/05/05 06:50:51;;;;;;;11.10;7.00;;;;;;;19.36;38.03;100851.22;5119978;27;20477;-63
2022/05/05 06:53:18;;;;;;;14.20;6.60;;;;;;;19.09;38.75;100855.34;5121020;28;20446;-63
2022/05/05 06:55:45;;;;;;;10.70;6.60;;;;;;;19.31;37.81;100850.94;5119445;27;20499;-62
2022/05/05 06:58:11;;;;;;;8.70;6.77;;;;;;;18.98;38.46;100851.19;5120555;28;20449;-62
2022/05/05 07:03:23;;;;;;;9.87;7.33;;;;;;;17.47;41.83;100854.00;5120667;28;20527;-62
2022/05/05 07:05:49;;;;;;;10.60;6.83;;;;;;;17.78;40.90;100856.00;5119796;27;20498;-62
2022/05/05 07:08:16;;;;;;;11.77;7.00;;;;;;;19.38;38.68;100851.03;5120987;28;20434;-62
2022/05/05 07:10:54;;;;;;;14.27;6.80;;;;;;;20.15;37.87;100858.03;5119128;27;21023;-62
2022/05/05 07:13:21;;;;;;;8.70;6.00;;;;;;;21.03;34.11;100853.41;5119199;28;20473;-62
2022/05/05 07:15:49;;;;;;;11.20;6.70;;;;;;;20.83;35.84;100855.97;5118956;27;20474;-62
2022/05/05 07:18:16;;;;;;;10.07;6.90;;;;;;;22.22;33.12;100857.22;5120180;28;20461;-62
2022/05/05 07:20:43;;;;;;;10.73;5.87;;;;;;;23.92;30.68;100850.75;5119640;28;20502;-62
2022/05/05 07:23:12;;;;;;;10.90;7.27;;;;;;;22.73;31.60;100855.97;5119743;28;20826;-62
2022/05/05 07:25:40;;;;;;;8.40;6.00;;;;;;;20.94;34.15;100862.75;5119662;27;20468;-62
2022/05/05 07:28:07;;;;;;;9.40;6.00;;;;;;;23.88;29.80;100864.00;5119908;28;20505;-62
2022/05/05 07:30:34;;;;;;;15.30;7.10;;;;;;;23.34;30.61;100862.34;5119420;27;20470;-62
2022/05/05 07:33:03;;;;;;;10.83;6.80;;;;;;;22.70;31.51;100865.38;5119354;28;20861;-62
2022/05/05 07:35:30;;;;;;;7.43;5.13;;;;;;;21.85;30.12;100867.47;5118833;27;20462;-63
2022/05/05 07:37:57;;;;;;;8.53;5.40;;;;;;;23.79;28.06;100866.06;5121044;28;20442;-63
2022/05/05 07:40:23;;;;;;;11.80;6.23;;;;;;;24.36;26.17;100865.53;5122057;27;20442;-62
2022/05/05 07:42:50;;;;;;;7.20;5.37;;;;;;;23.79;27.19;100867.97;5103045;28;20423;-62
2022/05/05 07:45:17;;;;;;;9.17;5.77;;;;;;;23.67;27.46;100875.97;5102189;28;20487;-62
2022/05/05 07:47:44;;;;;;;6.53;5.70;;;;;;;22.89;28.59;100874.63;5109073;28;20480;-62
2022/05/05 07:50:12;;;;;;;13.07;5.80;;;;;;;23.79;27.82;100865.25;5121488;27;20934;-62
2022/05/05 07:52:38;;;;;;;8.67;4.00;;;;;;;21.97;27.40;100865.88;5123027;28;20480;-62
2022/05/05 07:55:06;;;;;;;10.53;4.90;;;;;;;23.15;26.85;100870.31;5123873;28;20464;-62
2022/05/05 07:57:33;;;;;;;10.90;4.67;;;;;;;23.79;26.46;100865.25;5122033;28;20735;-63
2022/05/05 08:00:00;;;;;;;7.17;4.60;;;;;;;23.26;25.83;100875.16;5123968;28;20446;-62
2022/05/05 08:02:26;;;;;;;6.03;4.40;;;;;;;25.22;24.95;100874.28;5122084;27;20470;-62
2022/05/05 08:04:54;;;;;;;10.27;4.37;;;;;;;23.79;25.86;100881.63;5122888;28;20969;-62
2022/05/05 08:07:22;;;;;;;8.80;4.60;;;;;;;23.67;25.19;100881.44;5123016;27;21078;-63
2022/05/05 08:09:48;;;;;;;6.67;4.70;;;;;;;24.46;25.68;100882.31;5123881;28;20479;-62
2022/05/05 08:12:16;;;;;;;6.53;4.53;;;;;;;24.84;25.24;100877.91;5121289;27;20470;-62
2022/05/05 08:14:43;;;;;;;7.60;4.50;;;;;;;24.09;25.66;100878.44;5122683;28;20458;-62
2022/05/05 08:17:10;;;;;;;14.00;5.03;;;;;;;23.54;26.54;100882.28;5122924;27;20477;-63
2022/05/05 08:19:36;;;;;;;5.73;4.50;;;;;;;24.22;25.15;100881.13;5123166;28;20434;-63
2022/05/05 08:22:04;;;;;;;9.10;4.63;;;;;;;22.55;27.78;100884.63;5122195;27;20496;-62
2022/05/05 08:30:04;;;;;;;9.03;4.70;;;;;;;24.66;25.53;100884.13;5123084;28;21136;-62
2022/05/05 08:32:31;;;;;;;9.63;4.90;;;;;;;23.51;26.96;100888.16;5121489;27;20470;-62
2022/05/05 08:34:57;;;;;;;8.80;5.30;;;;;;;24.61;25.56;100882.88;5121598;28;20468;-62
2022/05/05 08:37:24;;;;;;;10.23;5.20;;;;;;;23.69;26.33;100890.25;5121830;27;20470;-62
2022/05/05 08:39:52;;;;;;;8.27;5.30;;;;;;;23.83;26.43;100885.63;5122520;28;20480;-62
2022/05/05 08:42:19;;;;;;;8.73;4.90;;;;;;;23.69;27.12;100891.06;5121023;27;20576;-61
2022/05/05 08:44:46;;;;;;;9.03;5.20;;;;;;;23.79;26.94;100892.56;5121558;28;20557;-63
2022/05/05 08:47:15;;;;;;;9.13;5.03;;;;;;;22.24;28.53;100895.13;5121924;27;20474;-61
2022/05/05 08:49:43;;;;;;;8.17;5.33;;;;;;;22.91;28.65;100899.84;5121179;28;20468;-62
2022/05/05 08:52:11;;;;;;;8.83;4.80;;;;;;;22.24;30.10;100898.72;5118929;27;20504;-62
2022/05/05 08:54:40;;;;;;;9.40;5.47;;;;;;;21.65;30.99;100904.59;5121850;28;20453;-62
2022/05/05 08:57:08;;;;;;;6.30;5.00;;;;;;;20.63;32.46;100903.81;5119876;27;21093;-62
2022/05/05 08:59:34;;;;;;;7.10;5.20;;;;;;;23.56;28.51;100906.63;5122246;28;20470;-63
2022/05/05 09:02:01;;;;;;;7.33;5.10;;;;;;;24.57;27.03;100916.34;5121768;27;20534;-62
2022/05/05 09:04:28;;;;;;;10.70;5.40;;;;;;;23.75;26.92;100913.13;5121223;28;20482;-64
2022/05/05 09:06:55;;;;;;;8.73;5.03;;;;;;;23.79;28.09;100914.41;5121948;27;20470;-62
2022/05/05 09:09:26;;;;;;;9.13;5.00;;;;;;;24.16;26.72;100912.88;5122428;28;20450;-62
2022/05/05 09:12:25;;;;;;;10.23;5.97;;;;;;;23.41;28.01;100918.59;5120730;27;20474;-62
2022/05/05 09:14:55;;;;;;;7.33;4.80;;;;;;;25.69;25.00;100916.69;5120477;28;20488;-62
2022/05/05 09:17:24;;;;;;;9.10;5.13;;;;;;;24.63;27.07;100915.47;5122129;28;20564;-62
2022/05/05 09:19:52;;;;;;;7.73;5.30;;;;;;;22.90;28.05;100913.69;5121390;28;20476;-62
2022/05/05 09:22:20;;;;;;;9.30;5.30;;;;;;;22.93;28.79;100914.09;5121751;27;20470;-62
2022/05/05 09:24:49;;;;;;;9.47;5.53;;;;;;;21.92;30.14;100916.53;5121754;28;20517;-62
2022/05/05 09:27:34;;;;;;;11.13;5.60;;;;;;;24.09;26.19;100903.84;5119597;27;20474;-63
2022/05/05 09:30:05;;;;;;;7.43;4.97;;;;;;;24.40;26.37;100915.97;5122177;28;20552;-63
2022/05/05 09:32:34;;;;;;;7.70;4.57;;;;;;;23.99;27.00;100911.66;5121762;28;20556;-62
2022/05/05 09:35:03;;;;;;;7.73;4.97;;;;;;;21.95;28.50;100916.97;5121096;28;20473;-62
2022/05/05 09:37:30;;;;;;;6.53;4.00;;;;;;;23.97;27.91;100916.50;5121234;27;20505;-62
2022/05/05 09:39:58;;;;;;;11.40;5.50;;;;;;;25.08;24.94;100917.31;5121028;28;20524;-62
2022/05/05 09:42:38;;;;;;;8.43;4.70;;;;;;;26.66;22.76;100923.47;5120394;27;20474;-62
2022/05/05 09:45:17;;;;;;;7.23;4.60;;;;;;;27.03;22.35;100926.97;5121046;28;20488;-62
2022/05/05 09:47:45;;;;;;;8.33;4.20;;;;;;;26.26;23.00;100921.19;5121241;28;20465;-63
2022/05/05 09:50:13;;;;;;;6.20;3.90;;;;;;;25.47;23.95;100931.84;5119724;27;20427;-62
2022/05/05 09:58:13;;;;;;;7.60;4.50;;;;;;;24.09;26.16;100928.44;5121215;28;20433;-61
2022/05/05 10:00:45;;;;;;;8.17;4.03;;;;;;;24.22;26.69;100925.69;5120427;27;20579;-61
2022/05/05 10:06:00;;;;;;;8.27;4.87;;;;;;;24.86;26.21;100931.34;5120171;27;20492;-62
2022/05/05 10:08:34;;;;;;;8.70;4.60;;;;;;;24.35;25.31;100927.53;5121186;28;20452;-62
2022/05/05 10:11:02;;;;;;;11.20;4.87;;;;;;;23.52;26.46;100922.56;5119341;27;20484;-62
2022/05/05 10:13:30;;;;;;;9.33;4.57;;;;;;;24.84;25.87;100927.16;5120424;28;20441;-62
2022/05/05 10:16:05;;;;;;;7.00;4.00;;;;;;;24.16;25.79;100929.25;5120435;28;20474;-62
2022/05/05 10:18:35;;;;;;;6.00;3.93;;;;;;;24.47;25.87;100927.69;5120900;28;20461;-62
2022/05/05 10:21:02;;;;;;;8.10;4.40;;;;;;;24.18;27.76;100926.31;5120396;27;20470;-62
2022/05/05 10:23:35;;;;;;;6.23;3.63;;;;;;;25.21;23.83;100927.34;5121012;28;20429;-62
2022/05/05 10:26:04;;;;;;;6.73;3.60;;;;;;;24.12;26.06;100927.19;5118938;27;20489;-62
2022/05/05 10:28:47;;;;;;;7.00;4.07;;;;;;;25.17;24.09;100927.81;5120671;28;20566;-61
2022/05/05 10:31:46;;;;;;;7.40;4.60;;;;;;;24.77;25.04;100930.78;5120197;27;20481;-62
2022/05/05 10:34:18;;;;;;;7.43;4.80;;;;;;;23.60;25.83;100925.09;5119614;28;20453;-62
2022/05/05 10:37:04;;;;;;;10.93;5.33;;;;;;;23.29;26.80;100925.72;5120148;28;20514;-62
2022/05/05 10:39:45;;;;;;;8.10;3.93;;;;;;;23.83;27.11;100921.13;5120227;28;20442;-62
2022/05/05 10:42:16;;;;;;;6.63;5.07;;;;;;;23.17;28.96;100920.03;5119432;27;20478;-62
2022/05/05 10:45:12;;;;;;;5.80;4.00;;;;;;;22.98;27.45;100912.63;5120213;28;20520;-63
2022/05/05 10:48:17;;;;;;;6.60;4.60;;;;;;;22.77;28.39;100919.91;5120782;28;20466;-62
2022/05/05 10:50:53;;;;;;;6.60;4.60;;;;;;;24.57;25.82;100921.81;5111107;27;20462;-61
2022/05/05 10:53:32;;;;;;;6.33;4.53;;;;;;;21.32;29.57;100916.00;5120666;28;20460;-61
2022/05/05 10:55:59;;;;;;;6.50;4.93;;;;;;;22.67;28.12;100927.63;5099460;27;20470;-62
2022/05/05 10:58:57;;;;;;;5.43;4.10;;;;;;;24.62;25.76;100922.84;5099308;28;20479;-62
2022/05/05 11:01:24;;;;;;;6.50;4.80;;;;;;;22.02;28.60;100924.34;5099843;28;20486;-62
2022/05/05 11:04:25;;;;;;;8.00;4.33;;;;;;;23.83;27.00;100927.41;5100759;28;20450;-62
2022/05/05 11:07:36;;;;;;;6.27;4.33;;;;;;;23.39;27.42;100919.88;5118160;27;20473;-61
2022/05/05 11:10:06;;;;;;;7.63;4.50;;;;;;;23.49;28.27;100926.59;5121025;28;20462;-61
2022/05/05 11:12:35;;;;;;;7.73;5.23;;;;;;;23.09;27.85;100915.63;5101376;28;20475;-61
2022/05/05 11:23:26;;;;;;;6.80;4.57;;;;;;;23.61;27.52;100918.59;5104505;28;20429;-60
2022/05/05 11:25:55;;;;;;;6.67;3.97;;;;;;;22.44;27.82;100922.50;5103586;27;20470;-60
2022/05/05 11:28:21;;;;;;;6.10;3.87;;;;;;;21.87;28.03;100925.28;5110515;28;20431;-61
2022/05/05 11:30:48;;;;;;;7.80;4.10;;;;;;;21.17;29.62;100914.19;5122804;27;21134;-62
2022/05/05 11:33:19;;;;;;;7.43;5.10;;;;;;;20.84;29.31;100920.13;5124116;28;20802;-62
2022/05/05 11:35:56;;;;;;;7.90;3.80;;;;;;;22.28;28.38;100927.25;5122830;27;20470;-65
2022/05/05 11:38:22;;;;;;;5.00;3.90;;;;;;;23.10;27.50;100917.28;5124029;28;20426;-64
2022/05/05 11:40:49;;;;;;;5.70;3.63;;;;;;;22.37;28.73;100923.31;5122538;27;21054;-63
2022/05/05 11:46:05;;;;;;;4.70;3.50;;;;;;;23.28;27.00;100913.97;5123507;27;21053;-65
2022/05/05 11:48:31;;;;;;;6.20;3.57;;;;;;;23.06;26.20;100924.22;5124362;28;20430;-64
2022/05/05 11:50:58;;;;;;;4.20;2.60;;;;;;;23.78;25.85;100919.03;5122404;27;20491;-63
2022/05/05 11:53:32;;;;;;;4.43;2.90;;;;;;;23.42;24.81;100924.91;5124549;28;20460;-62
2022/05/05 11:55:59;;;;;;;6.77;3.73;;;;;;;24.91;25.18;100920.59;5122743;27;20480;-65
2022/05/05 12:04:02;;;;;;;4.47;3.30;;;;;;;23.09;25.56;100918.34;5123827;28;20515;-63
2022/05/05 12:06:30;;;;;;;6.70;3.30;;;;;;;21.96;27.91;100921.38;5122055;27;20485;-63
2022/05/05 12:08:57;;;;;;;6.10;3.50;;;;;;;22.11;28.13;100915.81;5123488;28;20949;-64
2022/05/05 12:11:26;;;;;;;4.07;2.67;;;;;;;22.02;29.00;100917.00;5122874;27;20474;-66
2022/05/05 12:14:00;;;;;;;6.37;3.50;;;;;;;20.13;30.87;100915.22;5122556;28;20586;-62
2022/05/05 12:16:31;;;;;;;4.50;3.90;;;;;;;20.08;31.87;100917.66;5122051;27;20478;-60